sensor_id;sensor_type;location;lat;lon;timestamp;P1;durP1;ratioP1;P2;durP2;ratioP2
31206;SDS011;17834;52.992;8.856;2022-08-25T00:01:11;5.30;;;3.22;;
31206;SDS011;17834;52.992;8.856;2022-08-25T00:03:38;4.80;;;3.15;;
31206;SDS011;17834;52.992;8.856;2022-08-25T00:06:05;4.78;;;2.90;;
31206;SDS011;17834;52.992;8.856;2022-08-25T00:08:31;5.22;;;3.30;;
31206;SDS011;17834;52.992;8.856;2022-08-25T00:10:59;4.88;;;2.83;;
31206;SDS011;17834;52.992;8.856;2022-08-25T00:13:25;4.93;;;2.80;;
31206;SDS011;17834;52.992;8.856;2022-08-25T00:15:52;4.65;;;3.08;;
31206;SDS011;17834;52.992;8.856;2022-08-25T00:18:18;6.60;;;2.78;;
31206;SDS011;17834;52.992;8.856;2022-08-25T00:20:44;5.65;;;3.05;;
31206;SDS011;17834;52.992;8.856;2022-08-25T00:23:11;7.72;;;3.33;;
31206;SDS011;17834;52.992;8.856;2022-08-25T00:25:37;4.88;;;2.85;;
31206;SDS011;17834;52.992;8.856;2022-08-25T00:28:03;5.05;;;2.97;;
31206;SDS011;17834;52.992;8.856;2022-08-25T00:30:29;6.72;;;3.35;;
31206;SDS011;17834;52.992;8.856;2022-08-25T00:32:55;6.28;;;3.22;;
31206;SDS011;17834;52.992;8.856;2022-08-25T00:35:21;5.53;;;3.20;;
31206;SDS011;17834;52.992;8.856;2022-08-25T00:37:48;6.15;;;3.17;;
31206;SDS011;17834;52.992;8.856;2022-08-25T00:40:14;5.45;;;3.40;;
31206;SDS011;17834;52.992;8.856;2022-08-25T00:42:40;6.50;;;3.55;;
31206;SDS011;17834;52.992;8.856;2022-08-25T00:45:07;5.20;;;3.55;;
31206;SDS011;17834;52.992;8.856;2022-08-25T00:47:33;5.00;;;3.25;;
31206;SDS011;17834;52.992;8.856;2022-08-25T00:50:00;5.38;;;3.47;;
31206;SDS011;17834;52.992;8.856;2022-08-25T00:52:27;5.13;;;3.10;;
31206;SDS011;17834;52.992;8.856;2022-08-25T00:54:58;6.85;;;3.30;;
31206;SDS011;17834;52.992;8.856;2022-08-25T00:57:26;6.65;;;3.42;;
31206;SDS011;17834;52.992;8.856;2022-08-25T00:59:54;4.80;;;2.70;;
31206;SDS011;17834;52.992;8.856;2022-08-25T01:02:21;5.93;;;3.28;;
31206;SDS011;17834;52.992;8.856;2022-08-25T01:04:48;6.50;;;3.55;;
31206;SDS011;17834;52.992;8.856;2022-08-25T01:07:14;5.90;;;3.67;;
31206;SDS011;17834;52.992;8.856;2022-08-25T01:09:42;5.93;;;3.63;;
31206;SDS011;17834;52.992;8.856;2022-08-25T01:12:08;6.78;;;3.45;;
31206;SDS011;17834;52.992;8.856;2022-08-25T01:14:34;6.30;;;3.17;;
31206;SDS011;17834;52.992;8.856;2022-08-25T01:17:02;8.35;;;3.95;;
31206;SDS011;17834;52.992;8.856;2022-08-25T01:19:28;5.38;;;3.50;;
31206;SDS011;17834;52.992;8.856;2022-08-25T01:21:57;7.45;;;4.05;;
31206;SDS011;17834;52.992;8.856;2022-08-25T01:26:49;8.00;;;4.20;;
31206;SDS011;17834;52.992;8.856;2022-08-25T01:29:15;4.50;;;3.25;;
31206;SDS011;17834;52.992;8.856;2022-08-25T01:31:45;6.57;;;3.80;;
31206;SDS011;17834;52.992;8.856;2022-08-25T01:34:11;7.53;;;4.45;;
31206;SDS011;17834;52.992;8.856;2022-08-25T01:36:38;6.63;;;4.20;;
31206;SDS011;17834;52.992;8.856;2022-08-25T01:39:04;6.80;;;3.97;;
31206;SDS011;17834;52.992;8.856;2022-08-25T01:41:35;6.15;;;3.90;;
31206;SDS011;17834;52.992;8.856;2022-08-25T01:44:02;7.18;;;4.60;;
31206;SDS011;17834;52.992;8.856;2022-08-25T01:46:30;6.75;;;4.20;;
31206;SDS011;17834;52.992;8.856;2022-08-25T01:48:56;7.35;;;4.10;;
31206;SDS011;17834;52.992;8.856;2022-08-25T01:51:23;7.50;;;3.92;;
31206;SDS011;17834;52.992;8.856;2022-08-25T01:53:49;6.70;;;4.05;;
31206;SDS011;17834;52.992;8.856;2022-08-25T01:56:16;7.75;;;3.97;;
31206;SDS011;17834;52.992;8.856;2022-08-25T01:58:46;9.13;;;4.82;;
31206;SDS011;17834;52.992;8.856;2022-08-25T02:01:14;7.35;;;4.07;;
31206;SDS011;17834;52.992;8.856;2022-08-25T02:03:41;8.50;;;4.47;;
31206;SDS011;17834;52.992;8.856;2022-08-25T02:06:10;10.25;;;4.80;;
31206;SDS011;17834;52.992;8.856;2022-08-25T02:08:36;8.25;;;4.45;;
31206;SDS011;17834;52.992;8.856;2022-08-25T02:11:03;8.05;;;5.22;;
31206;SDS011;17834;52.992;8.856;2022-08-25T02:13:29;7.30;;;4.50;;
31206;SDS011;17834;52.992;8.856;2022-08-25T02:15:55;8.70;;;5.25;;
31206;SDS011;17834;52.992;8.856;2022-08-25T02:18:22;9.50;;;4.80;;
31206;SDS011;17834;52.992;8.856;2022-08-25T02:20:48;6.82;;;4.55;;
31206;SDS011;17834;52.992;8.856;2022-08-25T02:23:14;10.27;;;5.03;;
31206;SDS011;17834;52.992;8.856;2022-08-25T02:25:41;9.68;;;5.22;;
31206;SDS011;17834;52.992;8.856;2022-08-25T02:28:07;7.72;;;4.85;;
31206;SDS011;17834;52.992;8.856;2022-08-25T02:30:34;10.18;;;4.65;;
31206;SDS011;17834;52.992;8.856;2022-08-25T02:33:00;8.70;;;4.70;;
31206;SDS011;17834;52.992;8.856;2022-08-25T02:35:26;7.90;;;4.97;;
31206;SDS011;17834;52.992;8.856;2022-08-25T02:37:53;10.90;;;5.65;;
31206;SDS011;17834;52.992;8.856;2022-08-25T02:40:19;9.23;;;4.60;;
31206;SDS011;17834;52.992;8.856;2022-08-25T02:42:49;9.75;;;5.18;;
31206;SDS011;17834;52.992;8.856;2022-08-25T02:45:15;9.70;;;5.40;;
31206;SDS011;17834;52.992;8.856;2022-08-25T02:47:42;8.35;;;5.22;;
31206;SDS011;17834;52.992;8.856;2022-08-25T02:50:09;9.77;;;5.43;;
31206;SDS011;17834;52.992;8.856;2022-08-25T02:52:35;9.50;;;5.70;;
31206;SDS011;17834;52.992;8.856;2022-08-25T02:55:02;8.48;;;5.28;;
31206;SDS011;17834;52.992;8.856;2022-08-25T02:57:29;9.18;;;5.57;;
31206;SDS011;17834;52.992;8.856;2022-08-25T02:59:56;8.70;;;5.50;;
31206;SDS011;17834;52.992;8.856;2022-08-25T03:02:22;10.77;;;5.53;;
31206;SDS011;17834;52.992;8.856;2022-08-25T03:04:49;9.70;;;5.30;;
31206;SDS011;17834;52.992;8.856;2022-08-25T03:07:16;12.30;;;6.05;;
31206;SDS011;17834;52.992;8.856;2022-08-25T03:09:42;9.52;;;5.30;;
31206;SDS011;17834;52.992;8.856;2022-08-25T03:12:09;10.02;;;6.10;;
31206;SDS011;17834;52.992;8.856;2022-08-25T03:14:35;11.02;;;6.40;;
31206;SDS011;17834;52.992;8.856;2022-08-25T03:17:02;11.70;;;6.32;;
31206;SDS011;17834;52.992;8.856;2022-08-25T03:19:28;10.07;;;6.30;;
31206;SDS011;17834;52.992;8.856;2022-08-25T03:21:54;10.23;;;6.47;;
31206;SDS011;17834;52.992;8.856;2022-08-25T03:24:21;10.07;;;5.65;;
31206;SDS011;17834;52.992;8.856;2022-08-25T03:26:47;10.95;;;6.45;;
31206;SDS011;17834;52.992;8.856;2022-08-25T03:29:27;9.20;;;6.05;;
31206;SDS011;17834;52.992;8.856;2022-08-25T03:31:54;11.23;;;6.80;;
31206;SDS011;17834;52.992;8.856;2022-08-25T03:34:22;13.48;;;6.35;;
31206;SDS011;17834;52.992;8.856;2022-08-25T03:36:49;10.73;;;6.75;;
31206;SDS011;17834;52.992;8.856;2022-08-25T03:39:16;11.68;;;6.25;;
31206;SDS011;17834;52.992;8.856;2022-08-25T03:41:42;12.88;;;6.72;;
31206;SDS011;17834;52.992;8.856;2022-08-25T03:44:08;10.63;;;6.20;;
31206;SDS011;17834;52.992;8.856;2022-08-25T03:46:38;11.55;;;6.88;;
31206;SDS011;17834;52.992;8.856;2022-08-25T03:49:06;12.93;;;6.78;;
31206;SDS011;17834;52.992;8.856;2022-08-25T03:51:35;12.00;;;6.85;;
31206;SDS011;17834;52.992;8.856;2022-08-25T03:54:02;12.00;;;6.35;;
31206;SDS011;17834;52.992;8.856;2022-08-25T03:56:29;11.40;;;6.97;;
31206;SDS011;17834;52.992;8.856;2022-08-25T03:58:55;16.15;;;7.22;;
31206;SDS011;17834;52.992;8.856;2022-08-25T04:01:21;12.98;;;7.00;;
31206;SDS011;17834;52.992;8.856;2022-08-25T04:03:47;11.50;;;6.68;;
31206;SDS011;17834;52.992;8.856;2022-08-25T04:06:14;14.60;;;7.45;;
31206;SDS011;17834;52.992;8.856;2022-08-25T04:08:40;14.35;;;7.63;;
31206;SDS011;17834;52.992;8.856;2022-08-25T04:11:07;11.43;;;7.55;;
31206;SDS011;17834;52.992;8.856;2022-08-25T04:13:34;16.63;;;8.48;;
31206;SDS011;17834;52.992;8.856;2022-08-25T04:16:01;14.60;;;8.40;;
31206;SDS011;17834;52.992;8.856;2022-08-25T04:18:27;12.45;;;7.60;;
31206;SDS011;17834;52.992;8.856;2022-08-25T04:21:02;16.75;;;8.77;;
31206;SDS011;17834;52.992;8.856;2022-08-25T04:23:28;15.15;;;9.10;;
31206;SDS011;17834;52.992;8.856;2022-08-25T04:25:54;11.38;;;7.60;;
31206;SDS011;17834;52.992;8.856;2022-08-25T04:28:21;14.85;;;8.68;;
31206;SDS011;17834;52.992;8.856;2022-08-25T04:30:47;16.63;;;9.07;;
31206;SDS011;17834;52.992;8.856;2022-08-25T04:33:13;14.77;;;8.93;;
31206;SDS011;17834;52.992;8.856;2022-08-25T04:35:39;15.95;;;8.98;;
31206;SDS011;17834;52.992;8.856;2022-08-25T04:38:05;16.65;;;9.38;;
31206;SDS011;17834;52.992;8.856;2022-08-25T04:40:31;17.55;;;9.20;;
31206;SDS011;17834;52.992;8.856;2022-08-25T04:42:57;20.42;;;9.57;;
31206;SDS011;17834;52.992;8.856;2022-08-25T04:45:24;18.15;;;9.90;;
31206;SDS011;17834;52.992;8.856;2022-08-25T04:47:50;18.98;;;10.82;;
31206;SDS011;17834;52.992;8.856;2022-08-25T04:50:16;16.90;;;10.52;;
31206;SDS011;17834;52.992;8.856;2022-08-25T04:52:42;17.77;;;10.10;;
31206;SDS011;17834;52.992;8.856;2022-08-25T04:55:08;19.20;;;10.93;;
31206;SDS011;17834;52.992;8.856;2022-08-25T04:57:34;20.20;;;10.70;;
31206;SDS011;17834;52.992;8.856;2022-08-25T05:00:00;17.65;;;9.95;;
31206;SDS011;17834;52.992;8.856;2022-08-25T05:02:26;18.00;;;10.43;;
31206;SDS011;17834;52.992;8.856;2022-08-25T05:04:53;23.42;;;11.40;;
31206;SDS011;17834;52.992;8.856;2022-08-25T05:07:19;18.13;;;10.38;;
31206;SDS011;17834;52.992;8.856;2022-08-25T05:09:45;19.75;;;10.15;;
31206;SDS011;17834;52.992;8.856;2022-08-25T05:12:11;16.58;;;9.65;;
31206;SDS011;17834;52.992;8.856;2022-08-25T05:14:37;19.13;;;10.70;;
31206;SDS011;17834;52.992;8.856;2022-08-25T05:17:03;17.77;;;10.15;;
31206;SDS011;17834;52.992;8.856;2022-08-25T05:19:30;18.00;;;10.25;;
31206;SDS011;17834;52.992;8.856;2022-08-25T05:21:56;16.05;;;10.45;;
31206;SDS011;17834;52.992;8.856;2022-08-25T05:24:22;17.73;;;10.98;;
31206;SDS011;17834;52.992;8.856;2022-08-25T05:26:48;18.95;;;10.85;;
31206;SDS011;17834;52.992;8.856;2022-08-25T05:29:14;16.88;;;10.80;;
31206;SDS011;17834;52.992;8.856;2022-08-25T05:31:40;18.60;;;10.82;;
31206;SDS011;17834;52.992;8.856;2022-08-25T05:34:08;18.45;;;11.27;;
31206;SDS011;17834;52.992;8.856;2022-08-25T05:36:36;18.95;;;10.63;;
31206;SDS011;17834;52.992;8.856;2022-08-25T05:39:06;19.70;;;11.20;;
31206;SDS011;17834;52.992;8.856;2022-08-25T05:41:32;19.10;;;10.68;;
31206;SDS011;17834;52.992;8.856;2022-08-25T05:43:58;14.82;;;10.20;;
31206;SDS011;17834;52.992;8.856;2022-08-25T05:46:24;18.25;;;11.35;;
31206;SDS011;17834;52.992;8.856;2022-08-25T05:48:50;20.88;;;12.63;;
31206;SDS011;17834;52.992;8.856;2022-08-25T05:51:17;21.52;;;10.57;;
31206;SDS011;17834;52.992;8.856;2022-08-25T05:53:44;16.55;;;10.90;;
31206;SDS011;17834;52.992;8.856;2022-08-25T05:56:11;19.13;;;10.65;;
31206;SDS011;17834;52.992;8.856;2022-08-25T05:58:38;18.73;;;10.00;;
31206;SDS011;17834;52.992;8.856;2022-08-25T06:01:04;18.90;;;10.98;;
31206;SDS011;17834;52.992;8.856;2022-08-25T06:03:49;18.38;;;11.23;;
31206;SDS011;17834;52.992;8.856;2022-08-25T06:06:17;18.15;;;10.77;;
31206;SDS011;17834;52.992;8.856;2022-08-25T06:08:43;17.17;;;11.15;;
31206;SDS011;17834;52.992;8.856;2022-08-25T06:11:09;16.35;;;10.25;;
31206;SDS011;17834;52.992;8.856;2022-08-25T06:13:36;18.25;;;10.27;;
31206;SDS011;17834;52.992;8.856;2022-08-25T06:16:03;19.38;;;10.60;;
31206;SDS011;17834;52.992;8.856;2022-08-25T06:18:29;14.73;;;9.60;;
31206;SDS011;17834;52.992;8.856;2022-08-25T06:20:55;18.17;;;10.80;;
31206;SDS011;17834;52.992;8.856;2022-08-25T06:23:20;17.60;;;9.75;;
31206;SDS011;17834;52.992;8.856;2022-08-25T06:25:50;15.93;;;10.18;;
31206;SDS011;17834;52.992;8.856;2022-08-25T06:28:16;17.45;;;9.93;;
31206;SDS011;17834;52.992;8.856;2022-08-25T06:30:43;18.67;;;9.90;;
31206;SDS011;17834;52.992;8.856;2022-08-25T06:33:09;14.38;;;9.80;;
31206;SDS011;17834;52.992;8.856;2022-08-25T06:35:35;18.73;;;10.45;;
31206;SDS011;17834;52.992;8.856;2022-08-25T06:38:02;18.15;;;11.00;;
31206;SDS011;17834;52.992;8.856;2022-08-25T06:40:28;17.67;;;10.18;;
31206;SDS011;17834;52.992;8.856;2022-08-25T06:42:54;18.23;;;10.38;;
31206;SDS011;17834;52.992;8.856;2022-08-25T06:45:20;16.02;;;10.32;;
31206;SDS011;17834;52.992;8.856;2022-08-25T06:47:46;18.67;;;11.23;;
31206;SDS011;17834;52.992;8.856;2022-08-25T06:50:12;18.42;;;10.77;;
31206;SDS011;17834;52.992;8.856;2022-08-25T06:52:38;23.25;;;11.07;;
31206;SDS011;17834;52.992;8.856;2022-08-25T06:55:04;16.40;;;10.77;;
31206;SDS011;17834;52.992;8.856;2022-08-25T06:57:30;14.68;;;9.98;;
31206;SDS011;17834;52.992;8.856;2022-08-25T06:59:59;17.65;;;9.93;;
31206;SDS011;17834;52.992;8.856;2022-08-25T07:02:25;16.95;;;9.55;;
31206;SDS011;17834;52.992;8.856;2022-08-25T07:04:51;23.63;;;10.73;;
31206;SDS011;17834;52.992;8.856;2022-08-25T07:07:17;15.98;;;10.02;;
31206;SDS011;17834;52.992;8.856;2022-08-25T07:09:44;15.40;;;10.02;;
31206;SDS011;17834;52.992;8.856;2022-08-25T07:12:10;14.68;;;9.75;;
31206;SDS011;17834;52.992;8.856;2022-08-25T07:14:35;16.83;;;10.00;;
31206;SDS011;17834;52.992;8.856;2022-08-25T07:17:02;17.15;;;10.65;;
31206;SDS011;17834;52.992;8.856;2022-08-25T07:19:28;14.02;;;9.30;;
31206;SDS011;17834;52.992;8.856;2022-08-25T07:21:54;16.05;;;9.30;;
31206;SDS011;17834;52.992;8.856;2022-08-25T07:24:20;15.60;;;9.43;;
31206;SDS011;17834;52.992;8.856;2022-08-25T07:26:46;15.68;;;8.95;;
31206;SDS011;17834;52.992;8.856;2022-08-25T07:29:15;13.77;;;8.70;;
31206;SDS011;17834;52.992;8.856;2022-08-25T07:31:41;18.05;;;9.25;;
31206;SDS011;17834;52.992;8.856;2022-08-25T07:34:07;14.43;;;8.73;;
31206;SDS011;17834;52.992;8.856;2022-08-25T07:36:53;12.68;;;8.52;;
31206;SDS011;17834;52.992;8.856;2022-08-25T07:39:19;16.00;;;9.20;;
31206;SDS011;17834;52.992;8.856;2022-08-25T07:41:45;14.23;;;9.57;;
31206;SDS011;17834;52.992;8.856;2022-08-25T07:44:11;13.23;;;9.50;;
31206;SDS011;17834;52.992;8.856;2022-08-25T07:46:38;18.60;;;8.75;;
31206;SDS011;17834;52.992;8.856;2022-08-25T07:49:04;20.52;;;9.98;;
31206;SDS011;17834;52.992;8.856;2022-08-25T07:51:30;13.30;;;8.82;;
31206;SDS011;17834;52.992;8.856;2022-08-25T07:53:56;14.40;;;8.95;;
31206;SDS011;17834;52.992;8.856;2022-08-25T07:56:22;14.20;;;8.35;;
31206;SDS011;17834;52.992;8.856;2022-08-25T07:58:48;13.02;;;8.30;;
31206;SDS011;17834;52.992;8.856;2022-08-25T08:01:18;14.60;;;8.73;;
31206;SDS011;17834;52.992;8.856;2022-08-25T08:03:44;14.38;;;8.30;;
31206;SDS011;17834;52.992;8.856;2022-08-25T08:06:11;14.07;;;8.55;;
31206;SDS011;17834;52.992;8.856;2022-08-25T08:08:38;13.48;;;8.70;;
31206;SDS011;17834;52.992;8.856;2022-08-25T08:11:12;13.95;;;8.18;;
31206;SDS011;17834;52.992;8.856;2022-08-25T08:13:38;12.65;;;8.32;;
31206;SDS011;17834;52.992;8.856;2022-08-25T08:16:08;17.55;;;8.65;;
31206;SDS011;17834;52.992;8.856;2022-08-25T08:18:34;13.93;;;8.20;;
31206;SDS011;17834;52.992;8.856;2022-08-25T08:21:00;16.15;;;8.90;;
31206;SDS011;17834;52.992;8.856;2022-08-25T08:23:26;13.15;;;7.80;;
31206;SDS011;17834;52.992;8.856;2022-08-25T08:25:53;12.48;;;7.78;;
31206;SDS011;17834;52.992;8.856;2022-08-25T08:28:20;12.23;;;7.97;;
31206;SDS011;17834;52.992;8.856;2022-08-25T08:30:46;14.55;;;7.70;;
31206;SDS011;17834;52.992;8.856;2022-08-25T08:33:12;9.95;;;7.15;;
31206;SDS011;17834;52.992;8.856;2022-08-25T08:35:41;13.18;;;7.50;;
31206;SDS011;17834;52.992;8.856;2022-08-25T08:38:08;12.02;;;8.02;;
31206;SDS011;17834;52.992;8.856;2022-08-25T08:40:39;11.85;;;7.32;;
31206;SDS011;17834;52.992;8.856;2022-08-25T08:43:09;12.57;;;7.28;;
31206;SDS011;17834;52.992;8.856;2022-08-25T08:45:42;12.32;;;7.22;;
31206;SDS011;17834;52.992;8.856;2022-08-25T08:48:14;15.68;;;7.90;;
31206;SDS011;17834;52.992;8.856;2022-08-25T08:53:20;11.30;;;7.15;;
31206;SDS011;17834;52.992;8.856;2022-08-25T08:55:48;15.85;;;7.97;;
31206;SDS011;17834;52.992;8.856;2022-08-25T09:00:42;11.07;;;6.78;;
31206;SDS011;17834;52.992;8.856;2022-08-25T09:03:15;10.70;;;7.13;;
31206;SDS011;17834;52.992;8.856;2022-08-25T09:05:47;12.50;;;7.30;;
31206;SDS011;17834;52.992;8.856;2022-08-25T09:08:14;10.80;;;6.70;;
31206;SDS011;17834;52.992;8.856;2022-08-25T09:10:49;10.27;;;7.63;;
31206;SDS011;17834;52.992;8.856;2022-08-25T09:13:21;13.48;;;7.45;;
31206;SDS011;17834;52.992;8.856;2022-08-25T09:15:54;14.18;;;8.02;;
31206;SDS011;17834;52.992;8.856;2022-08-25T09:18:49;12.20;;;7.10;;
31206;SDS011;17834;52.992;8.856;2022-08-25T09:26:24;10.45;;;7.07;;
31206;SDS011;17834;52.992;8.856;2022-08-25T09:31:30;12.10;;;6.80;;
31206;SDS011;17834;52.992;8.856;2022-08-25T09:33:57;9.05;;;6.10;;
31206;SDS011;17834;52.992;8.856;2022-08-25T09:36:24;9.57;;;6.13;;
31206;SDS011;17834;52.992;8.856;2022-08-25T09:38:51;10.07;;;6.18;;
31206;SDS011;17834;52.992;8.856;2022-08-25T09:41:17;9.40;;;6.30;;
31206;SDS011;17834;52.992;8.856;2022-08-25T09:43:59;8.82;;;5.93;;
31206;SDS011;17834;52.992;8.856;2022-08-25T09:46:26;9.40;;;6.18;;
31206;SDS011;17834;52.992;8.856;2022-08-25T09:48:53;11.23;;;6.18;;
31206;SDS011;17834;52.992;8.856;2022-08-25T09:51:30;11.00;;;6.55;;
31206;SDS011;17834;52.992;8.856;2022-08-25T09:53:58;13.25;;;6.53;;
31206;SDS011;17834;52.992;8.856;2022-08-25T09:56:26;10.15;;;5.95;;
31206;SDS011;17834;52.992;8.856;2022-08-25T09:58:53;8.30;;;5.93;;
31206;SDS011;17834;52.992;8.856;2022-08-25T10:01:20;11.57;;;6.10;;
31206;SDS011;17834;52.992;8.856;2022-08-25T10:04:05;12.57;;;5.93;;
31206;SDS011;17834;52.992;8.856;2022-08-25T10:06:36;11.73;;;5.60;;
31206;SDS011;17834;52.992;8.856;2022-08-25T10:09:07;9.93;;;4.88;;
31206;SDS011;17834;52.992;8.856;2022-08-25T10:11:35;9.68;;;6.20;;
31206;SDS011;17834;52.992;8.856;2022-08-25T10:14:46;10.13;;;5.60;;
31206;SDS011;17834;52.992;8.856;2022-08-25T10:16:53;8.73;;;5.60;;
31206;SDS011;17834;52.992;8.856;2022-08-25T10:19:35;10.18;;;4.93;;
31206;SDS011;17834;52.992;8.856;2022-08-25T10:22:08;9.65;;;4.85;;
31206;SDS011;17834;52.992;8.856;2022-08-25T10:24:35;10.48;;;5.00;;
31206;SDS011;17834;52.992;8.856;2022-08-25T10:37:26;8.23;;;5.40;;
31206;SDS011;17834;52.992;8.856;2022-08-25T10:39:56;6.95;;;4.68;;
31206;SDS011;17834;52.992;8.856;2022-08-25T10:48:03;7.22;;;4.50;;
31206;SDS011;17834;52.992;8.856;2022-08-25T10:55:33;8.40;;;4.93;;
31206;SDS011;17834;52.992;8.856;2022-08-25T11:00:31;7.35;;;4.80;;
31206;SDS011;17834;52.992;8.856;2022-08-25T11:03:08;7.28;;;4.72;;
31206;SDS011;17834;52.992;8.856;2022-08-25T11:05:44;14.32;;;5.60;;
31206;SDS011;17834;52.992;8.856;2022-08-25T11:08:30;7.88;;;4.93;;
31206;SDS011;17834;52.992;8.856;2022-08-25T11:11:12;7.78;;;4.97;;
31206;SDS011;17834;52.992;8.856;2022-08-25T11:13:46;7.13;;;4.93;;
31206;SDS011;17834;52.992;8.856;2022-08-25T11:16:17;9.57;;;5.45;;
31206;SDS011;17834;52.992;8.856;2022-08-25T11:18:52;6.75;;;4.85;;
31206;SDS011;17834;52.992;8.856;2022-08-25T11:21:30;10.13;;;5.78;;
31206;SDS011;17834;52.992;8.856;2022-08-25T11:24:01;9.07;;;5.05;;
31206;SDS011;17834;52.992;8.856;2022-08-25T11:26:33;8.13;;;4.80;;
31206;SDS011;17834;52.992;8.856;2022-08-25T11:29:16;9.18;;;5.20;;
31206;SDS011;17834;52.992;8.856;2022-08-25T11:31:45;8.18;;;5.40;;
31206;SDS011;17834;52.992;8.856;2022-08-25T11:34:12;8.57;;;5.15;;
31206;SDS011;17834;52.992;8.856;2022-08-25T11:36:48;6.30;;;5.10;;
31206;SDS011;17834;52.992;8.856;2022-08-25T11:51:55;7.80;;;4.80;;
31206;SDS011;17834;52.992;8.856;2022-08-25T11:56:50;8.13;;;4.95;;
31206;SDS011;17834;52.992;8.856;2022-08-25T11:59:58;8.10;;;5.00;;
31206;SDS011;17834;52.992;8.856;2022-08-25T12:02:02;9.77;;;5.75;;
31206;SDS011;17834;52.992;8.856;2022-08-25T12:04:40;6.05;;;4.63;;
31206;SDS011;17834;52.992;8.856;2022-08-25T12:12:29;7.10;;;4.72;;
31206;SDS011;17834;52.992;8.856;2022-08-25T12:14:55;7.97;;;5.10;;
31206;SDS011;17834;52.992;8.856;2022-08-25T12:17:37;6.00;;;4.65;;
31206;SDS011;17834;52.992;8.856;2022-08-25T12:20:04;7.32;;;4.82;;
31206;SDS011;17834;52.992;8.856;2022-08-25T12:25:00;6.35;;;4.53;;
31206;SDS011;17834;52.992;8.856;2022-08-25T12:27:42;12.85;;;4.90;;
31206;SDS011;17834;52.992;8.856;2022-08-25T12:30:22;8.30;;;4.38;;
31206;SDS011;17834;52.992;8.856;2022-08-25T12:38:03;7.32;;;4.75;;
31206;SDS011;17834;52.992;8.856;2022-08-25T12:40:35;11.82;;;5.40;;
31206;SDS011;17834;52.992;8.856;2022-08-25T12:43:03;6.97;;;4.57;;
31206;SDS011;17834;52.992;8.856;2022-08-25T12:45:33;8.60;;;4.82;;
31206;SDS011;17834;52.992;8.856;2022-08-25T12:50:44;8.32;;;4.68;;
31206;SDS011;17834;52.992;8.856;2022-08-25T12:55:59;6.70;;;4.82;;
31206;SDS011;17834;52.992;8.856;2022-08-25T12:58:32;6.97;;;4.65;;
31206;SDS011;17834;52.992;8.856;2022-08-25T13:01:09;8.35;;;4.53;;
31206;SDS011;17834;52.992;8.856;2022-08-25T13:03:49;7.97;;;4.22;;
31206;SDS011;17834;52.992;8.856;2022-08-25T13:06:37;11.18;;;4.30;;
31206;SDS011;17834;52.992;8.856;2022-08-25T13:09:15;6.30;;;4.65;;
31206;SDS011;17834;52.992;8.856;2022-08-25T13:11:46;7.38;;;4.30;;
31206;SDS011;17834;52.992;8.856;2022-08-25T13:14:15;8.35;;;5.13;;
31206;SDS011;17834;52.992;8.856;2022-08-25T13:16:53;10.25;;;4.97;;
31206;SDS011;17834;52.992;8.856;2022-08-25T13:19:20;8.65;;;4.25;;
31206;SDS011;17834;52.992;8.856;2022-08-25T13:21:46;6.40;;;4.53;;
31206;SDS011;17834;52.992;8.856;2022-08-25T13:24:27;8.73;;;4.40;;
31206;SDS011;17834;52.992;8.856;2022-08-25T13:26:54;7.50;;;4.32;;
31206;SDS011;17834;52.992;8.856;2022-08-25T13:29:22;6.93;;;4.05;;
31206;SDS011;17834;52.992;8.856;2022-08-25T13:31:57;8.57;;;4.78;;
31206;SDS011;17834;52.992;8.856;2022-08-25T13:34:25;8.23;;;4.22;;
31206;SDS011;17834;52.992;8.856;2022-08-25T13:36:51;7.65;;;4.38;;
31206;SDS011;17834;52.992;8.856;2022-08-25T13:39:37;6.40;;;4.57;;
31206;SDS011;17834;52.992;8.856;2022-08-25T13:42:04;8.32;;;4.57;;
31206;SDS011;17834;52.992;8.856;2022-08-25T13:44:34;8.88;;;4.43;;
31206;SDS011;17834;52.992;8.856;2022-08-25T13:49:38;11.07;;;5.22;;
31206;SDS011;17834;52.992;8.856;2022-08-25T13:52:04;6.45;;;4.75;;
31206;SDS011;17834;52.992;8.856;2022-08-25T13:54:35;13.13;;;5.55;;
31206;SDS011;17834;52.992;8.856;2022-08-25T13:57:03;7.18;;;4.95;;
31206;SDS011;17834;52.992;8.856;2022-08-25T13:59:33;6.82;;;5.20;;
31206;SDS011;17834;52.992;8.856;2022-08-25T14:02:00;8.93;;;5.22;;
31206;SDS011;17834;52.992;8.856;2022-08-25T14:07:06;9.73;;;4.95;;
31206;SDS011;17834;52.992;8.856;2022-08-25T14:09:39;8.38;;;4.75;;
31206;SDS011;17834;52.992;8.856;2022-08-25T14:12:06;7.55;;;4.90;;
31206;SDS011;17834;52.992;8.856;2022-08-25T14:14:32;9.15;;;5.45;;
31206;SDS011;17834;52.992;8.856;2022-08-25T14:17:07;13.20;;;5.05;;
31206;SDS011;17834;52.992;8.856;2022-08-25T14:19:34;7.05;;;5.18;;
31206;SDS011;17834;52.992;8.856;2022-08-25T14:22:01;11.80;;;4.80;;
31206;SDS011;17834;52.992;8.856;2022-08-25T14:24:32;8.57;;;4.45;;
31206;SDS011;17834;52.992;8.856;2022-08-25T14:26:58;11.30;;;4.72;;
31206;SDS011;17834;52.992;8.856;2022-08-25T14:29:26;10.65;;;5.22;;
31206;SDS011;17834;52.992;8.856;2022-08-25T14:31:52;7.18;;;4.78;;
31206;SDS011;17834;52.992;8.856;2022-08-25T14:34:19;7.10;;;4.43;;
31206;SDS011;17834;52.992;8.856;2022-08-25T14:36:46;6.78;;;5.20;;
31206;SDS011;17834;52.992;8.856;2022-08-25T14:39:12;9.40;;;5.63;;
31206;SDS011;17834;52.992;8.856;2022-08-25T14:41:39;6.35;;;4.80;;
31206;SDS011;17834;52.992;8.856;2022-08-25T14:44:06;10.32;;;4.80;;
31206;SDS011;17834;52.992;8.856;2022-08-25T14:46:33;8.25;;;4.82;;
31206;SDS011;17834;52.992;8.856;2022-08-25T14:49:01;8.02;;;4.93;;
31206;SDS011;17834;52.992;8.856;2022-08-25T14:51:28;8.02;;;4.80;;
31206;SDS011;17834;52.992;8.856;2022-08-25T14:53:57;10.45;;;5.90;;
31206;SDS011;17834;52.992;8.856;2022-08-25T14:56:23;6.53;;;4.85;;
31206;SDS011;17834;52.992;8.856;2022-08-25T14:58:49;9.30;;;4.93;;
31206;SDS011;17834;52.992;8.856;2022-08-25T15:01:16;8.10;;;5.28;;
31206;SDS011;17834;52.992;8.856;2022-08-25T15:03:43;10.40;;;4.95;;
31206;SDS011;17834;52.992;8.856;2022-08-25T15:06:11;7.10;;;4.15;;
31206;SDS011;17834;52.992;8.856;2022-08-25T15:08:37;9.25;;;4.65;;
31206;SDS011;17834;52.992;8.856;2022-08-25T15:11:30;6.35;;;4.57;;
31206;SDS011;17834;52.992;8.856;2022-08-25T15:13:56;9.07;;;4.88;;
31206;SDS011;17834;52.992;8.856;2022-08-25T15:16:32;10.63;;;5.35;;
31206;SDS011;17834;52.992;8.856;2022-08-25T15:18:59;7.03;;;4.70;;
31206;SDS011;17834;52.992;8.856;2022-08-25T15:21:25;8.25;;;5.40;;
31206;SDS011;17834;52.992;8.856;2022-08-25T15:23:51;6.80;;;4.72;;
31206;SDS011;17834;52.992;8.856;2022-08-25T15:26:17;6.25;;;4.70;;
31206;SDS011;17834;52.992;8.856;2022-08-25T15:28:45;10.70;;;5.05;;
31206;SDS011;17834;52.992;8.856;2022-08-25T15:31:12;8.77;;;5.55;;
31206;SDS011;17834;52.992;8.856;2022-08-25T15:33:38;6.95;;;4.93;;
31206;SDS011;17834;52.992;8.856;2022-08-25T15:36:08;9.85;;;4.65;;
31206;SDS011;17834;52.992;8.856;2022-08-25T15:38:38;6.72;;;4.50;;
31206;SDS011;17834;52.992;8.856;2022-08-25T15:41:07;6.30;;;4.70;;
31206;SDS011;17834;52.992;8.856;2022-08-25T15:43:34;8.55;;;4.95;;
31206;SDS011;17834;52.992;8.856;2022-08-25T15:46:00;6.45;;;4.88;;
31206;SDS011;17834;52.992;8.856;2022-08-25T15:48:26;10.40;;;5.38;;
31206;SDS011;17834;52.992;8.856;2022-08-25T15:50:53;9.20;;;4.95;;
31206;SDS011;17834;52.992;8.856;2022-08-25T15:53:20;7.05;;;5.10;;
31206;SDS011;17834;52.992;8.856;2022-08-25T15:55:46;11.57;;;5.05;;
31206;SDS011;17834;52.992;8.856;2022-08-25T15:58:13;8.60;;;4.97;;
31206;SDS011;17834;52.992;8.856;2022-08-25T16:00:41;10.07;;;5.15;;
31206;SDS011;17834;52.992;8.856;2022-08-25T16:03:07;10.75;;;5.35;;